Mabalacat City, Philippines

7:37 PM PHT on September 23, 2014 (GMT +0800)
Clark International | Change Station
CLOSE
Current Station
Airport
Location: Angeles / Pampanga,
Elevation: 509 ft
Nearby Weather Stations

Elev 509 ft 15.19 °N, 120.56 °E | Updated 37 minutes ago

Light Rain
Light Rain
82 °F
Feels Like 86 °F
N
10
Wind Variable Wind from West

Today
High -- | Low -- °F
--% Chance of Precip.
Yesterday
High -- | Low -- °F
Precip. -- in
5:46 AM 5:53 PM
Waning Crescent, 1% visible
Pressure 29.80 in
Visibility 5.6 miles
Clouds Scattered Clouds 3000 ft
Mostly Cloudy 30000 ft
Heat Index 86 °F
Dew Point 70 °F
Humidity 66%
Rainfall 0.00 in
Snow Depth Not available.
UV 0 out of 12
Pollen Not available.
Air Quality Not available.
Flu Activity Not available.
METAR RPLC 231100Z 28009KT 9000 -RA SCT030 BKN300 28/21 Q1009 RMK A2980

More Conditions Fewer Conditions

Pressure 29.80 in
Visibility 5.6 miles
Clouds Scattered Clouds 3000 ft
Mostly Cloudy 30000 ft
Heat Index 86 °F
Dew Point 70 °F
Humidity 66%
Rainfall 0.00 in
Snow Depth Not available.
UV 0 out of 12
Pollen Not available.
Air Quality Not available.
Flu Activity Not available.
METAR RPLC 231100Z 28009KT 9000 -RA SCT030 BKN300 28/21 Q1009 RMK A2980

More Conditions Fewer Conditions

10-Day Weather Forecast

Almanac

Astronomy

Sep. 23, 2014 Rise Set
Actual Time 5:46 AM PHT 5:53 PM PHT
Civil Twilight 5:25 AM PHT 6:14 PM PHT
Nautical Twilight 5:00 AM PHT 6:39 PM PHT
Astronomical Twilight 4:35 AM PHT 7:04 PM PHT
Moon 4:45 AM PHT 5:11 PM PHT
Length of Visible Light 12h 49m
Length of Day
12h 06m
Tomorrow will be 0m 51s shorter.
Waning Crescent, 1% of the Moon is Illuminated
Today
Waning Crescent
Sep 24
New
Oct 1
First Quarter
Oct 8
Full
Oct 15
Last Quarter

Yesterday's Extremes

Country Highs Country Lows

Community

WunderPhotos

Upload Photos

1,755,644 photos uploaded!

Nearby

Snow Depth

Not available.

Earthquake Activity

City Distance Mag. Time & Date
No recent earthquake activity has been reported nearby.
Minimum magnitude displayed is 2.5.

Coastal Water Temperatures

Place Temperature
No Stations Reporting

Nearby Weather Stations